sensor_id;sensor_type;location;lat;lon;timestamp;temperature;humidity
1411;DHT22;700;51.906;8.404;2024-03-02T00:04:36;9.00;99.90
1411;DHT22;700;51.906;8.404;2024-03-02T00:09:41;8.80;99.90
1411;DHT22;700;51.906;8.404;2024-03-02T00:14:43;9.00;99.90
1411;DHT22;700;51.906;8.404;2024-03-02T00:19:43;8.60;99.90
1411;DHT22;700;51.906;8.404;2024-03-02T00:24:46;8.80;99.90
1411;DHT22;700;51.906;8.404;2024-03-02T00:29:49;8.60;99.90
1411;DHT22;700;51.906;8.404;2024-03-02T00:34:50;8.80;99.90
1411;DHT22;700;51.906;8.404;2024-03-02T00:39:53;8.50;99.90
1411;DHT22;700;51.906;8.404;2024-03-02T00:44:54;8.50;99.90
1411;DHT22;700;51.906;8.404;2024-03-02T00:49:54;8.60;99.90
1411;DHT22;700;51.906;8.404;2024-03-02T00:54:57;8.50;99.90
1411;DHT22;700;51.906;8.404;2024-03-02T00:59:58;8.40;99.90
1411;DHT22;700;51.906;8.404;2024-03-02T01:04:59;8.60;99.90
1411;DHT22;700;51.906;8.404;2024-03-02T01:10:04;8.40;99.90
1411;DHT22;700;51.906;8.404;2024-03-02T01:15:05;8.40;99.90
1411;DHT22;700;51.906;8.404;2024-03-02T01:20:08;8.30;99.90
1411;DHT22;700;51.906;8.404;2024-03-02T01:25:12;8.30;99.90
1411;DHT22;700;51.906;8.404;2024-03-02T01:30:14;8.30;99.90
1411;DHT22;700;51.906;8.404;2024-03-02T01:35:16;8.40;99.90
1411;DHT22;700;51.906;8.404;2024-03-02T01:40:17;8.30;99.90
1411;DHT22;700;51.906;8.404;2024-03-02T01:45:18;8.30;99.90
1411;DHT22;700;51.906;8.404;2024-03-02T01:50:29;8.70;99.90
1411;DHT22;700;51.906;8.404;2024-03-02T01:55:32;8.60;99.90
1411;DHT22;700;51.906;8.404;2024-03-02T02:00:35;8.70;99.90
1411;DHT22;700;51.906;8.404;2024-03-02T02:05:36;8.40;99.90
1411;DHT22;700;51.906;8.404;2024-03-02T02:10:38;8.40;99.90
1411;DHT22;700;51.906;8.404;2024-03-02T02:15:39;8.50;99.90
1411;DHT22;700;51.906;8.404;2024-03-02T02:20:40;8.30;99.90
1411;DHT22;700;51.906;8.404;2024-03-02T02:25:44;8.50;99.90
1411;DHT22;700;51.906;8.404;2024-03-02T02:30:46;8.50;99.90
1411;DHT22;700;51.906;8.404;2024-03-02T02:35:47;8.20;99.90
1411;DHT22;700;51.906;8.404;2024-03-02T02:40:48;8.00;99.90
1411;DHT22;700;51.906;8.404;2024-03-02T02:45:48;8.00;99.90
1411;DHT22;700;51.906;8.404;2024-03-02T02:50:49;8.10;99.90
1411;DHT22;700;51.906;8.404;2024-03-02T02:55:50;8.10;99.90
1411;DHT22;700;51.906;8.404;2024-03-02T03:00:50;8.20;99.90
1411;DHT22;700;51.906;8.404;2024-03-02T03:05:53;8.40;99.90
1411;DHT22;700;51.906;8.404;2024-03-02T03:10:56;8.40;99.90
1411;DHT22;700;51.906;8.404;2024-03-02T03:15:57;8.40;99.90
1411;DHT22;700;51.906;8.404;2024-03-02T03:20:57;8.10;99.90
1411;DHT22;700;51.906;8.404;2024-03-02T03:25:58;8.00;99.90
1411;DHT22;700;51.906;8.404;2024-03-02T03:31:01;8.20;99.90
1411;DHT22;700;51.906;8.404;2024-03-02T03:36:02;8.50;99.90
1411;DHT22;700;51.906;8.404;2024-03-02T03:41:06;8.40;99.90
1411;DHT22;700;51.906;8.404;2024-03-02T03:46:09;8.30;99.90
1411;DHT22;700;51.906;8.404;2024-03-02T03:51:10;8.30;99.90
1411;DHT22;700;51.906;8.404;2024-03-02T03:56:10;8.20;99.90
1411;DHT22;700;51.906;8.404;2024-03-02T04:01:11;8.50;99.90
1411;DHT22;700;51.906;8.404;2024-03-02T04:06:13;8.30;99.90
1411;DHT22;700;51.906;8.404;2024-03-02T04:11:14;8.20;99.90
1411;DHT22;700;51.906;8.404;2024-03-02T04:16:15;8.30;99.90
1411;DHT22;700;51.906;8.404;2024-03-02T04:21:15;8.20;99.90
1411;DHT22;700;51.906;8.404;2024-03-02T04:26:16;8.20;99.90
1411;DHT22;700;51.906;8.404;2024-03-02T04:31:24;8.20;99.90
1411;DHT22;700;51.906;8.404;2024-03-02T04:36:27;8.20;99.90
1411;DHT22;700;51.906;8.404;2024-03-02T04:41:28;8.40;99.90
1411;DHT22;700;51.906;8.404;2024-03-02T04:46:28;7.90;99.90
1411;DHT22;700;51.906;8.404;2024-03-02T04:51:29;7.80;99.90
1411;DHT22;700;51.906;8.404;2024-03-02T04:56:29;8.00;99.90
1411;DHT22;700;51.906;8.404;2024-03-02T05:01:33;7.80;99.90
1411;DHT22;700;51.906;8.404;2024-03-02T05:06:34;7.90;99.90
1411;DHT22;700;51.906;8.404;2024-03-02T05:11:35;8.00;99.90
1411;DHT22;700;51.906;8.404;2024-03-02T05:16:41;8.10;99.90
1411;DHT22;700;51.906;8.404;2024-03-02T05:21:44;7.70;99.90
1411;DHT22;700;51.906;8.404;2024-03-02T05:26:45;7.70;99.90
1411;DHT22;700;51.906;8.404;2024-03-02T05:31:45;8.00;99.90
1411;DHT22;700;51.906;8.404;2024-03-02T05:36:51;8.00;99.90
1411;DHT22;700;51.906;8.404;2024-03-02T05:41:51;8.10;99.90
1411;DHT22;700;51.906;8.404;2024-03-02T05:46:55;8.00;99.90
1411;DHT22;700;51.906;8.404;2024-03-02T05:51:58;7.90;99.90
1411;DHT22;700;51.906;8.404;2024-03-02T05:57:01;7.80;99.90
1411;DHT22;700;51.906;8.404;2024-03-02T06:02:17;7.90;99.90
1411;DHT22;700;51.906;8.404;2024-03-02T06:07:17;8.10;99.90
1411;DHT22;700;51.906;8.404;2024-03-02T06:12:20;8.00;99.90
1411;DHT22;700;51.906;8.404;2024-03-02T06:17:23;8.20;99.90
1411;DHT22;700;51.906;8.404;2024-03-02T06:22:26;8.00;99.90
1411;DHT22;700;51.906;8.404;2024-03-02T06:27:26;8.00;99.90
1411;DHT22;700;51.906;8.404;2024-03-02T06:32:27;8.10;99.90
1411;DHT22;700;51.906;8.404;2024-03-02T06:37:27;8.50;99.90
1411;DHT22;700;51.906;8.404;2024-03-02T06:42:28;8.50;99.90
1411;DHT22;700;51.906;8.404;2024-03-02T06:47:33;8.40;99.90
1411;DHT22;700;51.906;8.404;2024-03-02T06:52:34;8.70;99.90
1411;DHT22;700;51.906;8.404;2024-03-02T06:57:34;8.80;99.90
1411;DHT22;700;51.906;8.404;2024-03-02T07:02:37;8.50;99.90
1411;DHT22;700;51.906;8.404;2024-03-02T07:07:38;8.60;99.90
1411;DHT22;700;51.906;8.404;2024-03-02T07:12:39;8.80;99.90
1411;DHT22;700;51.906;8.404;2024-03-02T07:17:39;8.30;99.90
1411;DHT22;700;51.906;8.404;2024-03-02T07:22:40;8.10;99.90
1411;DHT22;700;51.906;8.404;2024-03-02T07:27:43;8.50;99.90
1411;DHT22;700;51.906;8.404;2024-03-02T07:32:49;8.30;99.90
1411;DHT22;700;51.906;8.404;2024-03-02T07:37:50;8.60;99.90
1411;DHT22;700;51.906;8.404;2024-03-02T07:42:53;8.90;99.90
1411;DHT22;700;51.906;8.404;2024-03-02T07:47:56;10.20;99.90
1411;DHT22;700;51.906;8.404;2024-03-02T07:52:56;10.70;99.90
1411;DHT22;700;51.906;8.404;2024-03-02T07:57:57;11.10;99.90
1411;DHT22;700;51.906;8.404;2024-03-02T08:02:59;11.70;99.90
1411;DHT22;700;51.906;8.404;2024-03-02T08:07:59;13.00;99.90
1411;DHT22;700;51.906;8.404;2024-03-02T08:13:00;13.90;99.90
1411;DHT22;700;51.906;8.404;2024-03-02T08:18:01;16.10;99.90
1411;DHT22;700;51.906;8.404;2024-03-02T08:23:06;17.60;99.90
1411;DHT22;700;51.906;8.404;2024-03-02T08:28:11;17.90;99.90
1411;DHT22;700;51.906;8.404;2024-03-02T08:33:11;18.60;99.90
1411;DHT22;700;51.906;8.404;2024-03-02T08:38:12;18.40;99.90
1411;DHT22;700;51.906;8.404;2024-03-02T08:43:13;18.40;99.90
1411;DHT22;700;51.906;8.404;2024-03-02T08:48:19;18.50;99.90
1411;DHT22;700;51.906;8.404;2024-03-02T08:53:25;18.90;99.90
1411;DHT22;700;51.906;8.404;2024-03-02T08:58:26;19.50;99.70
1411;DHT22;700;51.906;8.404;2024-03-02T09:03:27;19.40;99.00
1411;DHT22;700;51.906;8.404;2024-03-02T09:08:28;21.10;94.90
1411;DHT22;700;51.906;8.404;2024-03-02T09:13:28;22.20;92.10
1411;DHT22;700;51.906;8.404;2024-03-02T09:18:32;23.30;87.70
1411;DHT22;700;51.906;8.404;2024-03-02T09:23:33;23.40;81.40
1411;DHT22;700;51.906;8.404;2024-03-02T09:28:35;24.60;78.20
1411;DHT22;700;51.906;8.404;2024-03-02T09:33:36;27.10;66.70
1411;DHT22;700;51.906;8.404;2024-03-02T09:38:39;26.60;64.20
1411;DHT22;700;51.906;8.404;2024-03-02T09:43:42;25.00;62.70
1411;DHT22;700;51.906;8.404;2024-03-02T09:48:44;24.10;65.00
1411;DHT22;700;51.906;8.404;2024-03-02T09:53:48;25.50;64.90
1411;DHT22;700;51.906;8.404;2024-03-02T09:58:49;25.40;64.50
1411;DHT22;700;51.906;8.404;2024-03-02T10:03:50;25.20;63.70
1411;DHT22;700;51.906;8.404;2024-03-02T10:08:51;24.70;62.70
1411;DHT22;700;51.906;8.404;2024-03-02T10:14:10;25.30;60.60
1411;DHT22;700;51.906;8.404;2024-03-02T10:19:22;25.10;62.50
1411;DHT22;700;51.906;8.404;2024-03-02T10:24:23;25.60;60.80
1411;DHT22;700;51.906;8.404;2024-03-02T10:29:29;25.00;60.30
1411;DHT22;700;51.906;8.404;2024-03-02T10:34:31;23.20;63.80
1411;DHT22;700;51.906;8.404;2024-03-02T10:39:31;24.00;63.30
1411;DHT22;700;51.906;8.404;2024-03-02T10:44:35;24.50;64.60
1411;DHT22;700;51.906;8.404;2024-03-02T10:49:40;24.40;62.90
1411;DHT22;700;51.906;8.404;2024-03-02T10:54:42;24.90;61.00
1411;DHT22;700;51.906;8.404;2024-03-02T11:00:03;28.20;57.50
1411;DHT22;700;51.906;8.404;2024-03-02T11:05:06;29.80;54.20
1411;DHT22;700;51.906;8.404;2024-03-02T11:10:11;26.50;55.20
1411;DHT22;700;51.906;8.404;2024-03-02T11:15:17;25.80;57.40
1411;DHT22;700;51.906;8.404;2024-03-02T11:20:19;26.10;55.60
1411;DHT22;700;51.906;8.404;2024-03-02T11:25:27;25.60;57.90
1411;DHT22;700;51.906;8.404;2024-03-02T11:35:35;26.20;56.70
1411;DHT22;700;51.906;8.404;2024-03-02T11:40:36;25.50;57.50
1411;DHT22;700;51.906;8.404;2024-03-02T11:45:44;24.50;59.30
1411;DHT22;700;51.906;8.404;2024-03-02T11:50:49;24.30;60.00
1411;DHT22;700;51.906;8.404;2024-03-02T11:55:50;24.00;60.40
1411;DHT22;700;51.906;8.404;2024-03-02T12:00:53;22.70;62.10
1411;DHT22;700;51.906;8.404;2024-03-02T12:05:55;23.20;62.00
1411;DHT22;700;51.906;8.404;2024-03-02T12:11:00;23.20;61.70
1411;DHT22;700;51.906;8.404;2024-03-02T12:16:01;22.20;59.30
1411;DHT22;700;51.906;8.404;2024-03-02T12:21:04;20.90;62.60
1411;DHT22;700;51.906;8.404;2024-03-02T12:26:07;19.60;63.50
1411;DHT22;700;51.906;8.404;2024-03-02T12:31:10;20.30;64.50
1411;DHT22;700;51.906;8.404;2024-03-02T12:36:10;22.40;62.10
1411;DHT22;700;51.906;8.404;2024-03-02T12:41:17;22.80;61.30
1411;DHT22;700;51.906;8.404;2024-03-02T12:46:18;22.20;61.80
1411;DHT22;700;51.906;8.404;2024-03-02T12:51:18;21.90;64.60
1411;DHT22;700;51.906;8.404;2024-03-02T12:56:21;20.80;68.40
1411;DHT22;700;51.906;8.404;2024-03-02T13:01:24;21.10;68.70
1411;DHT22;700;51.906;8.404;2024-03-02T13:06:26;21.70;67.60
1411;DHT22;700;51.906;8.404;2024-03-02T13:11:32;21.80;66.60
1411;DHT22;700;51.906;8.404;2024-03-02T13:16:40;21.00;69.10
1411;DHT22;700;51.906;8.404;2024-03-02T13:21:41;20.10;69.30
1411;DHT22;700;51.906;8.404;2024-03-02T13:26:42;18.70;73.10
1411;DHT22;700;51.906;8.404;2024-03-02T13:31:45;18.00;77.00
1411;DHT22;700;51.906;8.404;2024-03-02T13:36:46;17.60;79.00
1411;DHT22;700;51.906;8.404;2024-03-02T13:41:46;17.00;81.50
1411;DHT22;700;51.906;8.404;2024-03-02T13:46:55;16.20;86.30
1411;DHT22;700;51.906;8.404;2024-03-02T13:51:55;16.10;89.50
1411;DHT22;700;51.906;8.404;2024-03-02T13:57:03;16.20;90.80
1411;DHT22;700;51.906;8.404;2024-03-02T14:02:07;16.50;91.60
1411;DHT22;700;51.906;8.404;2024-03-02T14:07:09;17.60;90.20
1411;DHT22;700;51.906;8.404;2024-03-02T14:12:11;17.90;90.10
1411;DHT22;700;51.906;8.404;2024-03-02T14:17:13;17.40;91.00
1411;DHT22;700;51.906;8.404;2024-03-02T14:22:16;16.80;91.10
1411;DHT22;700;51.906;8.404;2024-03-02T14:27:18;16.30;92.00
1411;DHT22;700;51.906;8.404;2024-03-02T14:32:21;16.20;93.70
1411;DHT22;700;51.906;8.404;2024-03-02T14:37:22;15.80;94.30
1411;DHT22;700;51.906;8.404;2024-03-02T14:42:25;16.00;94.80
1411;DHT22;700;51.906;8.404;2024-03-02T14:47:31;15.90;95.00
1411;DHT22;700;51.906;8.404;2024-03-02T14:52:35;15.90;96.10
1411;DHT22;700;51.906;8.404;2024-03-02T14:57:35;16.30;96.00
1411;DHT22;700;51.906;8.404;2024-03-02T15:02:36;15.90;96.50
1411;DHT22;700;51.906;8.404;2024-03-02T15:07:37;16.30;96.20
1411;DHT22;700;51.906;8.404;2024-03-02T15:12:39;16.30;96.20
1411;DHT22;700;51.906;8.404;2024-03-02T15:17:39;16.50;96.10
1411;DHT22;700;51.906;8.404;2024-03-02T15:22:42;16.30;95.50
1411;DHT22;700;51.906;8.404;2024-03-02T15:27:45;16.10;96.10
1411;DHT22;700;51.906;8.404;2024-03-02T15:32:46;15.80;96.90
1411;DHT22;700;51.906;8.404;2024-03-02T15:37:46;15.70;96.10
1411;DHT22;700;51.906;8.404;2024-03-02T15:42:47;15.80;96.20
1411;DHT22;700;51.906;8.404;2024-03-02T15:47:47;15.60;96.50
1411;DHT22;700;51.906;8.404;2024-03-02T15:52:48;16.00;96.60
1411;DHT22;700;51.906;8.404;2024-03-02T15:57:49;15.50;96.50
1411;DHT22;700;51.906;8.404;2024-03-02T16:02:54;15.50;97.20
1411;DHT22;700;51.906;8.404;2024-03-02T16:07:55;15.50;96.80
1411;DHT22;700;51.906;8.404;2024-03-02T16:12:55;15.20;97.30
1411;DHT22;700;51.906;8.404;2024-03-02T16:18:00;15.50;97.40
1411;DHT22;700;51.906;8.404;2024-03-02T16:23:02;15.20;97.90
1411;DHT22;700;51.906;8.404;2024-03-02T16:28:05;15.30;98.20
1411;DHT22;700;51.906;8.404;2024-03-02T16:33:06;14.90;98.90
1411;DHT22;700;51.906;8.404;2024-03-02T16:38:06;15.10;98.90
1411;DHT22;700;51.906;8.404;2024-03-02T16:43:07;15.10;98.90
1411;DHT22;700;51.906;8.404;2024-03-02T16:48:08;15.20;98.80
1411;DHT22;700;51.906;8.404;2024-03-02T16:53:08;14.80;99.40
1411;DHT22;700;51.906;8.404;2024-03-02T16:58:11;14.60;99.90
1411;DHT22;700;51.906;8.404;2024-03-02T17:03:12;14.30;99.90
1411;DHT22;700;51.906;8.404;2024-03-02T17:08:15;14.40;99.90
1411;DHT22;700;51.906;8.404;2024-03-02T17:13:15;14.50;99.90
1411;DHT22;700;51.906;8.404;2024-03-02T17:18:16;14.30;99.90
1411;DHT22;700;51.906;8.404;2024-03-02T17:23:17;14.20;99.90
1411;DHT22;700;51.906;8.404;2024-03-02T17:28:22;14.00;99.90
1411;DHT22;700;51.906;8.404;2024-03-02T17:33:24;14.00;99.90
1411;DHT22;700;51.906;8.404;2024-03-02T17:38:24;14.00;99.90
1411;DHT22;700;51.906;8.404;2024-03-02T17:43:25;13.90;99.90
1411;DHT22;700;51.906;8.404;2024-03-02T17:48:26;13.80;99.90
1411;DHT22;700;51.906;8.404;2024-03-02T17:53:26;13.80;99.90
1411;DHT22;700;51.906;8.404;2024-03-02T17:58:32;13.90;99.90
1411;DHT22;700;51.906;8.404;2024-03-02T18:03:35;13.80;99.90
1411;DHT22;700;51.906;8.404;2024-03-02T18:08:38;13.70;99.90
1411;DHT22;700;51.906;8.404;2024-03-02T18:13:41;13.60;99.90
1411;DHT22;700;51.906;8.404;2024-03-02T18:18:45;13.60;99.90
1411;DHT22;700;51.906;8.404;2024-03-02T18:23:46;13.40;99.90
1411;DHT22;700;51.906;8.404;2024-03-02T18:28:47;13.50;99.90
1411;DHT22;700;51.906;8.404;2024-03-02T18:33:50;13.50;99.90
1411;DHT22;700;51.906;8.404;2024-03-02T18:38:51;13.40;99.90
1411;DHT22;700;51.906;8.404;2024-03-02T18:43:51;13.40;99.90
1411;DHT22;700;51.906;8.404;2024-03-02T18:48:52;13.50;99.90
1411;DHT22;700;51.906;8.404;2024-03-02T18:53:55;13.50;99.90
1411;DHT22;700;51.906;8.404;2024-03-02T18:58:57;13.00;99.90
1411;DHT22;700;51.906;8.404;2024-03-02T19:04:01;13.00;99.90
1411;DHT22;700;51.906;8.404;2024-03-02T19:09:01;12.90;99.90
1411;DHT22;700;51.906;8.404;2024-03-02T19:14:02;13.00;99.90
1411;DHT22;700;51.906;8.404;2024-03-02T19:19:03;13.10;99.90
1411;DHT22;700;51.906;8.404;2024-03-02T19:24:04;13.00;99.90
1411;DHT22;700;51.906;8.404;2024-03-02T19:29:05;12.90;99.90
1411;DHT22;700;51.906;8.404;2024-03-02T19:34:05;12.90;99.90
1411;DHT22;700;51.906;8.404;2024-03-02T19:39:08;12.80;99.90
1411;DHT22;700;51.906;8.404;2024-03-02T19:44:11;12.80;99.90
1411;DHT22;700;51.906;8.404;2024-03-02T19:49:14;12.90;99.90
1411;DHT22;700;51.906;8.404;2024-03-02T19:54:15;12.80;99.90
1411;DHT22;700;51.906;8.404;2024-03-02T19:59:18;12.80;99.90
1411;DHT22;700;51.906;8.404;2024-03-02T20:04:19;12.60;99.90
1411;DHT22;700;51.906;8.404;2024-03-02T20:09:26;12.80;99.90
1411;DHT22;700;51.906;8.404;2024-03-02T20:14:29;12.70;99.90
1411;DHT22;700;51.906;8.404;2024-03-02T20:19:32;12.50;99.90
1411;DHT22;700;51.906;8.404;2024-03-02T20:24:33;12.30;99.90
1411;DHT22;700;51.906;8.404;2024-03-02T20:29:34;12.40;99.90
1411;DHT22;700;51.906;8.404;2024-03-02T20:34:35;12.50;99.90
1411;DHT22;700;51.906;8.404;2024-03-02T20:39:35;12.40;99.90
1411;DHT22;700;51.906;8.404;2024-03-02T20:44:36;12.20;99.90
1411;DHT22;700;51.906;8.404;2024-03-02T20:49:37;11.90;99.90
1411;DHT22;700;51.906;8.404;2024-03-02T20:54:40;11.90;99.90
1411;DHT22;700;51.906;8.404;2024-03-02T20:59:40;12.00;99.90
1411;DHT22;700;51.906;8.404;2024-03-02T21:04:42;11.80;99.90
1411;DHT22;700;51.906;8.404;2024-03-02T21:09:47;11.90;99.90
1411;DHT22;700;51.906;8.404;2024-03-02T21:14:49;12.10;99.90
1411;DHT22;700;51.906;8.404;2024-03-02T21:19:50;11.90;99.90
1411;DHT22;700;51.906;8.404;2024-03-02T21:24:53;11.90;99.90
1411;DHT22;700;51.906;8.404;2024-03-02T21:29:56;12.10;99.90
1411;DHT22;700;51.906;8.404;2024-03-02T21:34:59;12.20;99.90
1411;DHT22;700;51.906;8.404;2024-03-02T21:40:01;12.20;99.90
1411;DHT22;700;51.906;8.404;2024-03-02T21:45:01;12.20;99.90
1411;DHT22;700;51.906;8.404;2024-03-02T21:50:02;12.00;99.90
1411;DHT22;700;51.906;8.404;2024-03-02T21:55:05;12.00;99.90
1411;DHT22;700;51.906;8.404;2024-03-02T22:00:06;12.20;99.90
1411;DHT22;700;51.906;8.404;2024-03-02T22:05:07;12.40;99.90
1411;DHT22;700;51.906;8.404;2024-03-02T22:10:07;12.20;99.90
1411;DHT22;700;51.906;8.404;2024-03-02T22:15:09;12.00;99.90
1411;DHT22;700;51.906;8.404;2024-03-02T22:20:11;12.00;99.90
1411;DHT22;700;51.906;8.404;2024-03-02T22:25:12;11.90;99.90
1411;DHT22;700;51.906;8.404;2024-03-02T22:30:13;11.80;99.90
1411;DHT22;700;51.906;8.404;2024-03-02T22:35:18;12.00;99.90
1411;DHT22;700;51.906;8.404;2024-03-02T22:40:21;12.00;99.90
1411;DHT22;700;51.906;8.404;2024-03-02T22:45:25;12.00;99.90
1411;DHT22;700;51.906;8.404;2024-03-02T22:50:28;12.00;99.90
1411;DHT22;700;51.906;8.404;2024-03-02T22:55:29;12.00;99.90
1411;DHT22;700;51.906;8.404;2024-03-02T23:00:31;12.00;99.90
1411;DHT22;700;51.906;8.404;2024-03-02T23:05:36;11.90;99.90
1411;DHT22;700;51.906;8.404;2024-03-02T23:10:36;12.30;99.90
1411;DHT22;700;51.906;8.404;2024-03-02T23:15:37;12.20;99.90
1411;DHT22;700;51.906;8.404;2024-03-02T23:20:37;12.10;99.90
1411;DHT22;700;51.906;8.404;2024-03-02T23:25:38;12.10;99.90
1411;DHT22;700;51.906;8.404;2024-03-02T23:30:39;12.10;99.90
1411;DHT22;700;51.906;8.404;2024-03-02T23:35:39;12.20;99.90
1411;DHT22;700;51.906;8.404;2024-03-02T23:40:45;12.20;99.90
1411;DHT22;700;51.906;8.404;2024-03-02T23:45:51;12.10;99.90
1411;DHT22;700;51.906;8.404;2024-03-02T23:50:51;12.10;99.90
1411;DHT22;700;51.906;8.404;2024-03-02T23:55:52;11.90;99.90
